createdAt,value
2018-04-22T00:01:39.715Z,64.59
2018-04-22T00:04:08.072Z,64.64
2018-04-22T00:06:36.393Z,64.83
2018-04-22T00:09:04.764Z,64.53
2018-04-22T00:11:33.089Z,64.42
2018-04-22T00:14:01.423Z,64.25
2018-04-22T00:16:30.962Z,64.40
2018-04-22T00:18:59.443Z,63.81
2018-04-22T00:21:27.780Z,63.66
2018-04-22T00:23:56.547Z,63.62
2018-04-22T00:26:24.855Z,63.49
2018-04-22T00:28:53.949Z,63.48
2018-04-22T00:31:22.698Z,63.78
2018-04-22T00:33:50.999Z,63.89
2018-04-22T00:36:19.341Z,64.14
2018-04-22T00:38:47.662Z,64.17
2018-04-22T00:41:15.963Z,64.06
2018-04-22T00:43:44.311Z,64.23
2018-04-22T00:46:12.660Z,64.56
2018-04-22T00:48:40.974Z,64.44
2018-04-22T00:51:09.342Z,64.47
2018-04-22T00:53:55.406Z,64.12
2018-04-22T00:56:23.775Z,64.26
2018-04-22T00:58:52.141Z,64.28
2018-04-22T01:01:20.493Z,64.70
2018-04-22T01:03:49.594Z,64.60
2018-04-22T01:06:17.934Z,64.93
2018-04-22T01:08:46.289Z,65.07
2018-04-22T01:11:14.670Z,65.11
2018-04-22T01:13:43.010Z,65.61
2018-04-22T01:16:11.353Z,65.53
2018-04-22T01:18:40.482Z,65.86
2018-04-22T01:21:09.227Z,66.23
2018-04-22T01:23:37.576Z,66.41
2018-04-22T01:26:06.713Z,66.72
2018-04-22T01:28:35.057Z,66.58
2018-04-22T01:31:03.381Z,66.64
2018-04-22T01:33:32.510Z,66.93
2018-04-22T01:36:01.219Z,66.74
2018-04-22T01:38:31.058Z,66.94
2018-04-22T01:40:59.765Z,67.04
2018-04-22T01:43:28.871Z,67.37
2018-04-22T01:45:57.999Z,67.37
2018-04-22T01:48:26.316Z,67.99
2018-04-22T01:50:54.675Z,67.81
2018-04-22T01:53:23.008Z,67.38
2018-04-22T01:55:51.835Z,67.49
2018-04-22T01:58:20.189Z,67.43
2018-04-22T02:00:49.302Z,68.18
2018-04-22T02:03:17.614Z,68.10
2018-04-22T02:05:46.380Z,67.88
2018-04-22T02:08:14.684Z,68.17
2018-04-22T02:10:43.016Z,68.58
2018-04-22T02:13:11.342Z,68.68
2018-04-22T02:15:41.181Z,69.83
2018-04-22T02:18:09.505Z,69.77
2018-04-22T02:20:38.626Z,69.33
2018-04-22T02:23:07.693Z,69.40
2018-04-22T02:25:36.025Z,69.86
2018-04-22T02:28:05.167Z,69.97
2018-04-22T02:30:33.521Z,69.85
2018-04-22T02:33:02.620Z,70.73
2018-04-22T02:35:30.925Z,70.40
2018-04-22T02:37:59.267Z,70.43
2018-04-22T02:40:27.579Z,70.67
2018-04-22T02:42:55.921Z,70.23
2018-04-22T02:45:24.357Z,70.22
2018-04-22T02:47:53.425Z,69.99
2018-04-22T02:50:21.917Z,70.60
2018-04-22T02:52:50.345Z,70.90
2018-04-22T02:55:19.048Z,71.59
2018-04-22T02:57:47.527Z,71.99
2018-04-22T03:00:15.889Z,71.37
2018-04-22T03:02:44.628Z,72.09
2018-04-22T03:05:13.140Z,72.12
2018-04-22T03:07:41.482Z,72.45
2018-04-22T03:10:09.791Z,72.47
2018-04-22T03:12:38.292Z,72.30
2018-04-22T03:15:06.605Z,72.34
2018-04-22T03:17:35.405Z,72.08
2018-04-22T03:20:04.336Z,71.95
2018-04-22T03:22:33.093Z,72.30
2018-04-22T03:25:01.448Z,72.33
2018-04-22T03:27:30.766Z,72.83
2018-04-22T03:29:59.882Z,73.13
2018-04-22T03:32:28.474Z,73.49
2018-04-22T03:34:56.848Z,73.03
2018-04-22T03:37:25.206Z,72.69
2018-04-22T03:39:54.284Z,72.33
2018-04-22T03:42:22.758Z,71.95
2018-04-22T03:44:51.896Z,71.79
2018-04-22T03:47:20.933Z,71.73
2018-04-22T03:49:50.067Z,71.71
2018-04-22T03:52:18.477Z,71.83
2018-04-22T03:54:47.518Z,71.82
2018-04-22T03:57:15.871Z,71.75
2018-04-22T03:59:44.722Z,71.67
2018-04-22T04:02:14.021Z,71.60
2018-04-22T04:04:42.737Z,71.64
2018-04-22T04:07:11.113Z,71.50
2018-04-22T04:09:40.233Z,71.39
2018-04-22T04:12:09.497Z,71.22
2018-04-22T04:14:39.220Z,71.20
2018-04-22T04:17:07.519Z,71.11
2018-04-22T04:22:49.052Z,70.77
2018-04-22T04:28:41.075Z,70.56
2018-04-22T04:31:10.282Z,70.22
2018-04-22T04:33:39.152Z,69.92
2018-04-22T04:36:07.829Z,69.68
2018-04-22T04:38:36.329Z,69.48
2018-04-22T04:41:04.704Z,69.25
2018-04-22T04:43:33.280Z,69.00
2018-04-22T04:46:01.673Z,68.65
2018-04-22T04:48:30.049Z,68.32
2018-04-22T04:50:59.120Z,67.93
2018-04-22T04:53:27.475Z,67.69
2018-04-22T04:55:56.031Z,67.27
2018-04-22T04:58:26.099Z,66.57
2018-04-22T05:00:55.098Z,65.88
2018-04-22T05:03:23.458Z,65.12
2018-04-22T05:05:51.796Z,64.50
2018-04-22T05:08:20.189Z,63.93
2018-04-22T05:10:49.407Z,63.70
2018-04-22T05:13:17.848Z,63.03
2018-04-22T05:15:46.210Z,62.61
2018-04-22T05:18:14.648Z,62.15
2018-04-22T05:20:44.939Z,61.71
2018-04-22T05:23:13.408Z,60.88
2018-04-22T05:25:44.242Z,60.04
2018-04-22T05:28:13.782Z,60.22
2018-04-22T05:30:42.118Z,60.32
2018-04-22T05:33:10.468Z,59.70
2018-04-22T05:35:38.964Z,60.15
2018-04-22T05:38:07.672Z,59.55
2018-04-22T05:40:36.489Z,59.09
2018-04-22T05:43:04.852Z,59.00
2018-04-22T05:45:34.096Z,58.63
2018-04-22T05:48:02.536Z,58.43
2018-04-22T05:50:31.359Z,57.86
2018-04-22T05:53:01.779Z,57.51
2018-04-22T05:55:32.004Z,57.44
2018-04-22T05:58:01.131Z,56.86
2018-04-22T06:00:30.500Z,56.68
2018-04-22T06:02:58.828Z,56.36
2018-04-22T06:05:28.822Z,55.18
2018-04-22T06:07:58.736Z,55.47
2018-04-22T06:10:29.672Z,54.67
2018-04-22T06:12:58.244Z,54.57
2018-04-22T06:15:26.696Z,52.84
2018-04-22T06:17:57.673Z,52.71
2018-04-22T06:20:27.545Z,52.29
2018-04-22T06:22:56.637Z,51.99
2018-04-22T06:25:25.132Z,51.98
2018-04-22T06:27:53.468Z,51.69
2018-04-22T06:30:22.591Z,51.45
2018-04-22T06:32:51.407Z,51.57
2018-04-22T06:35:20.980Z,50.05
2018-04-22T06:37:50.308Z,50.01
2018-04-22T06:40:19.843Z,50.11
2018-04-22T06:42:48.288Z,50.13
2018-04-22T06:45:17.390Z,49.87
2018-04-22T06:47:46.572Z,49.92
2018-04-22T06:50:14.976Z,49.03
2018-04-22T06:52:43.941Z,49.08
2018-04-22T06:55:12.308Z,49.30
2018-04-22T06:57:41.126Z,49.42
2018-04-22T07:00:10.627Z,48.85
2018-04-22T07:02:39.874Z,49.09
2018-04-22T07:05:08.724Z,49.03
2018-04-22T07:07:37.883Z,48.96
2018-04-22T07:10:06.297Z,48.92
2018-04-22T07:12:34.806Z,48.76
2018-04-22T07:15:04.068Z,48.45
2018-04-22T07:17:32.431Z,48.46
2018-04-22T07:20:01.300Z,47.98
2018-04-22T07:22:30.490Z,47.25
2018-04-22T07:24:59.714Z,46.81
2018-04-22T07:27:28.078Z,47.04
2018-04-22T07:29:57.817Z,45.84
2018-04-22T07:32:26.947Z,46.76
2018-04-22T07:34:55.293Z,44.85
2018-04-22T07:37:24.109Z,45.67
2018-04-22T07:39:52.831Z,45.47
2018-04-22T07:42:21.244Z,45.14
2018-04-22T07:44:50.339Z,45.52
2018-04-22T07:47:19.303Z,44.39
2018-04-22T07:49:48.426Z,43.96
2018-04-22T07:52:16.787Z,44.63
2018-04-22T07:54:45.174Z,44.49
2018-04-22T07:57:13.909Z,44.50
2018-04-22T07:59:43.816Z,44.42
2018-04-22T08:02:12.177Z,43.78
2018-04-22T08:04:40.514Z,43.20
2018-04-22T08:07:09.919Z,43.25
2018-04-22T08:09:38.285Z,43.45
2018-04-22T08:12:07.365Z,43.75
2018-04-22T08:14:35.731Z,43.10
2018-04-22T08:17:04.107Z,42.78
2018-04-22T08:19:32.422Z,42.39
2018-04-22T08:22:01.147Z,42.81
2018-04-22T08:24:29.465Z,43.09
2018-04-22T08:26:57.808Z,42.88
2018-04-22T08:29:26.141Z,42.65
2018-04-22T08:31:55.249Z,42.37
2018-04-22T08:34:24.394Z,42.48
2018-04-22T08:36:54.249Z,41.99
2018-04-22T08:39:23.019Z,42.28
2018-04-22T08:41:51.747Z,42.73
2018-04-22T08:44:20.814Z,42.41
2018-04-22T08:46:49.933Z,41.97
2018-04-22T08:49:18.267Z,42.56
2018-04-22T08:51:47.419Z,41.72
2018-04-22T08:54:17.095Z,42.01
2018-04-22T08:56:46.245Z,41.31
2018-04-22T08:59:15.355Z,40.74
2018-04-22T09:01:44.475Z,40.87
2018-04-22T09:04:13.610Z,40.72
2018-04-22T09:06:41.961Z,39.25
2018-04-22T09:09:10.671Z,39.77
2018-04-22T09:11:39.793Z,40.46
2018-04-22T09:14:08.874Z,41.07
2018-04-22T09:16:37.302Z,40.52
2018-04-22T09:19:06.525Z,40.58
2018-04-22T09:21:35.280Z,39.28
2018-04-22T09:24:03.653Z,39.81
2018-04-22T09:26:34.538Z,38.72
2018-04-22T09:29:03.685Z,39.56
2018-04-22T09:31:32.793Z,39.45
2018-04-22T09:34:01.160Z,38.97
2018-04-22T09:36:30.265Z,39.65
2018-04-22T09:38:59.418Z,38.77
2018-04-22T09:41:27.817Z,38.27
2018-04-22T09:43:57.211Z,37.96
2018-04-22T09:46:25.962Z,38.33
2018-04-22T09:48:54.384Z,37.53
2018-04-22T09:51:23.248Z,37.39
2018-04-22T09:53:52.497Z,37.91
2018-04-22T09:56:22.720Z,37.52
2018-04-22T09:58:51.841Z,38.01
2018-04-22T10:01:20.975Z,38.51
2018-04-22T10:03:49.333Z,38.03
2018-04-22T10:06:18.829Z,38.02
2018-04-22T10:08:47.200Z,38.56
2018-04-22T10:11:17.049Z,37.79
2018-04-22T10:13:45.595Z,38.79
2018-04-22T10:16:13.916Z,37.36
2018-04-22T10:18:42.337Z,37.59
2018-04-22T10:21:12.865Z,37.92
2018-04-22T10:23:41.217Z,37.30
2018-04-22T10:26:10.091Z,37.84
2018-04-22T10:28:40.101Z,37.59
2018-04-22T10:31:08.674Z,38.14
2018-04-22T10:33:38.351Z,37.11
2018-04-22T10:36:07.151Z,36.91
2018-04-22T10:38:35.913Z,36.42
2018-04-22T10:41:04.289Z,36.51
2018-04-22T10:43:32.646Z,36.72
2018-04-22T10:46:01.550Z,35.37
2018-04-22T10:48:31.299Z,35.81
2018-04-22T10:51:00.382Z,35.83
2018-04-22T10:53:29.684Z,36.18
2018-04-22T10:55:58.505Z,37.09
2018-04-22T10:58:26.881Z,37.63
2018-04-22T11:00:55.240Z,37.45
2018-04-22T11:03:23.637Z,37.26
2018-04-22T11:05:52.817Z,37.27
2018-04-22T11:08:21.167Z,36.49
2018-04-22T11:10:50.028Z,36.81
2018-04-22T11:13:18.909Z,36.93
2018-04-22T11:15:48.969Z,35.83
2018-04-22T11:18:17.336Z,35.92
2018-04-22T11:20:46.853Z,36.21
2018-04-22T11:23:16.329Z,36.37
2018-04-22T11:25:44.740Z,36.39
2018-04-22T11:28:13.700Z,36.57
2018-04-22T11:30:42.925Z,36.63
2018-04-22T11:33:12.238Z,37.02
2018-04-22T11:35:41.777Z,36.92
2018-04-22T11:38:15.517Z,36.23
2018-04-22T11:40:46.069Z,37.04
2018-04-22T11:43:15.286Z,36.77
2018-04-22T11:45:43.837Z,36.63
2018-04-22T11:48:13.404Z,36.77
2018-04-22T11:50:41.745Z,36.80
2018-04-22T11:53:10.177Z,36.82
2018-04-22T11:55:39.297Z,37.07
2018-04-22T11:58:07.660Z,36.90
2018-04-22T12:00:36.773Z,36.50
2018-04-22T12:03:05.245Z,36.23
2018-04-22T12:05:33.594Z,36.47
2018-04-22T12:08:01.941Z,36.46
2018-04-22T12:10:30.873Z,36.89
2018-04-22T12:13:00.037Z,35.19
2018-04-22T12:15:29.239Z,35.25
2018-04-22T12:17:57.581Z,35.45
2018-04-22T12:20:28.215Z,35.99
2018-04-22T12:22:57.450Z,35.30
2018-04-22T12:25:25.929Z,35.63
2018-04-22T12:27:56.523Z,34.84
2018-04-22T12:30:25.805Z,34.96
2018-04-22T12:32:55.067Z,35.07
2018-04-22T12:35:23.392Z,35.55
2018-04-22T12:37:51.863Z,35.80
2018-04-22T12:40:21.128Z,35.91
2018-04-22T12:42:49.584Z,35.88
2018-04-22T12:45:17.883Z,33.69
2018-04-22T12:47:48.048Z,33.84
2018-04-22T12:50:17.236Z,34.26
2018-04-22T12:52:47.869Z,34.54
2018-04-22T12:55:19.760Z,34.44
2018-04-22T12:57:48.142Z,34.88
2018-04-22T13:00:16.773Z,34.54
2018-04-22T13:02:45.141Z,34.43
2018-04-22T13:05:14.215Z,34.04
2018-04-22T13:07:42.589Z,35.03
2018-04-22T13:10:11.912Z,35.29
2018-04-22T13:12:40.377Z,34.17
2018-04-22T13:15:09.147Z,34.00
2018-04-22T13:17:37.626Z,33.75
2018-04-22T13:20:06.157Z,34.41
2018-04-22T13:22:34.840Z,34.29
2018-04-22T13:25:04.030Z,34.53
2018-04-22T13:27:33.752Z,34.81
2018-04-22T13:30:02.249Z,35.04
2018-04-22T13:32:30.606Z,35.06
2018-04-22T13:34:59.732Z,35.54
2018-04-22T13:37:28.062Z,35.32
2018-04-22T13:39:56.395Z,34.40
2018-04-22T13:42:24.774Z,33.22
2018-04-22T13:44:53.102Z,33.65
2018-04-22T13:47:22.372Z,34.55
2018-04-22T13:49:50.752Z,32.95
2018-04-22T13:52:19.204Z,34.04
2018-04-22T13:54:47.602Z,33.96
2018-04-22T13:57:16.062Z,34.33
2018-04-22T13:59:44.448Z,34.15
2018-04-22T14:02:13.592Z,33.12
2018-04-22T14:07:25.386Z,33.90
2018-04-22T14:09:54.907Z,34.22
2018-04-22T14:12:24.014Z,34.71
2018-04-22T14:14:54.123Z,34.71
2018-04-22T14:17:23.241Z,34.95
2018-04-22T14:19:52.601Z,35.33
2018-04-22T14:22:20.930Z,35.37
2018-04-22T14:24:49.359Z,35.50
2018-04-22T14:27:17.712Z,35.55
2018-04-22T14:29:47.406Z,35.79
2018-04-22T14:32:15.852Z,35.91
2018-04-22T14:34:44.242Z,35.65
2018-04-22T14:37:12.654Z,35.74
2018-04-22T14:39:40.978Z,35.78
2018-04-22T14:42:09.334Z,35.51
2018-04-22T14:44:55.275Z,35.22
2018-04-22T14:47:23.601Z,35.30
2018-04-22T14:49:51.974Z,35.05
2018-04-22T14:52:20.325Z,35.11
2018-04-22T14:54:48.651Z,35.03
2018-04-22T14:57:17.772Z,34.90
2018-04-22T14:59:46.093Z,34.71
2018-04-22T15:02:14.465Z,33.89
2018-04-22T15:04:42.811Z,33.70
2018-04-22T15:07:11.163Z,33.71
2018-04-22T15:09:40.303Z,33.29
2018-04-22T15:12:08.637Z,33.42
2018-04-22T15:14:37.862Z,33.42
2018-04-22T15:17:06.178Z,33.44
2018-04-22T15:19:34.542Z,32.95
2018-04-22T15:22:02.877Z,32.48
2018-04-22T15:24:31.213Z,31.97
2018-04-22T15:26:59.560Z,32.45
2018-04-22T15:29:27.892Z,32.38
2018-04-22T15:31:57.051Z,32.31
2018-04-22T15:34:25.394Z,31.78
2018-04-22T15:36:53.751Z,31.48
2018-04-22T15:39:22.865Z,31.32
2018-04-22T15:41:51.211Z,31.13
2018-04-22T15:44:19.499Z,31.24
2018-04-22T15:46:48.627Z,31.16
2018-04-22T15:49:16.935Z,31.29
2018-04-22T15:51:45.325Z,31.42
2018-04-22T15:54:13.609Z,31.52
2018-04-22T15:56:41.916Z,32.06
2018-04-22T15:59:10.274Z,31.81
2018-04-22T16:01:39.411Z,31.97
2018-04-22T16:04:07.764Z,31.65
2018-04-22T16:06:36.109Z,32.66
2018-04-22T16:09:04.413Z,32.43
2018-04-22T16:11:32.783Z,32.61
2018-04-22T16:14:01.911Z,32.18
2018-04-22T16:16:30.297Z,32.53
2018-04-22T16:18:58.642Z,33.04
2018-04-22T16:21:27.790Z,33.94
2018-04-22T16:23:56.186Z,34.24
2018-04-22T16:26:24.518Z,34.19
2018-04-22T16:28:52.838Z,33.96
2018-04-22T16:31:21.168Z,34.34
2018-04-22T16:33:49.506Z,34.50
2018-04-22T16:36:17.868Z,34.59
2018-04-22T16:38:46.230Z,33.99
2018-04-22T16:41:14.562Z,33.82
2018-04-22T16:43:43.112Z,34.23
2018-04-22T16:46:11.475Z,34.92
2018-04-22T16:48:39.838Z,35.18
2018-04-22T16:51:09.025Z,35.12
2018-04-22T16:53:37.375Z,35.42
2018-04-22T16:56:05.776Z,35.77
2018-04-22T16:58:34.102Z,36.35
2018-04-22T17:01:02.529Z,36.52
2018-04-22T17:03:30.893Z,36.59
2018-04-22T17:05:59.308Z,36.91
2018-04-22T17:08:27.791Z,37.25
2018-04-22T17:10:56.568Z,37.22
2018-04-22T17:13:24.946Z,37.55
2018-04-22T17:15:53.349Z,38.13
2018-04-22T17:18:21.719Z,38.26
2018-04-22T17:20:50.940Z,37.94
2018-04-22T17:23:19.960Z,38.27
2018-04-22T17:25:49.072Z,38.63
2018-04-22T17:28:17.432Z,39.36
2018-04-22T17:30:46.693Z,39.85
2018-04-22T17:33:16.554Z,39.83
2018-04-22T17:35:44.881Z,40.05
2018-04-22T17:38:13.264Z,40.13
2018-04-22T17:40:41.597Z,40.61
2018-04-22T17:43:09.981Z,40.06
2018-04-22T17:45:38.337Z,39.87
2018-04-22T17:48:07.025Z,40.18
2018-04-22T17:50:35.394Z,40.76
2018-04-22T17:53:04.705Z,40.86
2018-04-22T17:55:33.116Z,40.97
2018-04-22T17:58:01.832Z,40.73
2018-04-22T18:00:30.171Z,41.40
2018-04-22T18:02:58.561Z,41.38
2018-04-22T18:05:26.918Z,41.97
2018-04-22T18:07:55.253Z,42.63
2018-04-22T18:10:24.380Z,42.92
2018-04-22T18:12:52.697Z,43.54
2018-04-22T18:15:21.063Z,43.74
2018-04-22T18:17:49.408Z,44.21
2018-04-22T18:20:17.761Z,44.26
2018-04-22T18:22:46.131Z,44.54
2018-04-22T18:25:14.462Z,44.92
2018-04-22T18:27:43.760Z,45.26
2018-04-22T18:30:12.145Z,44.87
2018-04-22T18:32:40.484Z,45.27
2018-04-22T18:35:09.597Z,45.20
2018-04-22T18:37:37.968Z,45.47
2018-04-22T18:40:06.317Z,45.98
2018-04-22T18:42:34.666Z,46.60
2018-04-22T18:45:03.024Z,46.44
2018-04-22T18:47:31.418Z,46.65
2018-04-22T18:49:59.817Z,46.95
2018-04-22T18:52:29.667Z,46.69
2018-04-22T18:54:58.813Z,46.78
2018-04-22T18:57:27.152Z,46.46
2018-04-22T18:59:55.513Z,46.91
2018-04-22T19:02:24.624Z,46.31
2018-04-22T19:04:52.992Z,46.72
2018-04-22T19:07:21.307Z,46.69
2018-04-22T19:09:49.663Z,47.13
2018-04-22T19:12:17.997Z,47.45
2018-04-22T19:14:46.383Z,47.55
2018-04-22T19:17:15.690Z,48.03
2018-04-22T19:19:45.559Z,48.15
2018-04-22T19:22:13.949Z,48.17
2018-04-22T19:24:42.322Z,47.65
2018-04-22T19:27:10.689Z,47.41
2018-04-22T19:29:39.065Z,47.29
2018-04-22T19:32:07.433Z,47.41
2018-04-22T19:34:36.488Z,47.41
2018-04-22T19:37:05.613Z,47.38
2018-04-22T19:39:33.967Z,46.92
2018-04-22T19:42:03.104Z,46.70
2018-04-22T19:44:31.428Z,46.44
2018-04-22T19:47:00.566Z,46.37
2018-04-22T19:49:28.994Z,46.25
2018-04-22T19:51:57.383Z,45.88
2018-04-22T19:54:25.795Z,46.11
2018-04-22T19:56:54.884Z,46.47
2018-04-22T19:59:24.213Z,46.67
2018-04-22T20:01:52.566Z,47.04
2018-04-22T20:04:20.935Z,46.24
2018-04-22T20:06:49.323Z,46.15
2018-04-22T20:09:17.679Z,46.53
2018-04-22T20:11:46.803Z,46.83
2018-04-22T20:14:15.157Z,46.76
2018-04-22T20:16:43.559Z,46.88
2018-04-22T20:19:11.885Z,47.17
2018-04-22T20:21:40.243Z,47.43
2018-04-22T20:24:08.573Z,47.69
2018-04-22T20:26:36.962Z,48.04
2018-04-22T20:29:05.283Z,48.04
2018-04-22T20:31:33.637Z,47.94
2018-04-22T20:34:01.983Z,47.68
2018-04-22T20:36:30.348Z,47.77
2018-04-22T20:38:59.479Z,47.91
2018-04-22T20:41:27.802Z,48.16
2018-04-22T20:43:56.583Z,48.51
2018-04-22T20:46:24.950Z,48.65
2018-04-22T20:48:53.291Z,48.67
2018-04-22T20:51:22.395Z,48.89
2018-04-22T20:53:50.803Z,49.15
2018-04-22T20:56:19.179Z,49.52
2018-04-22T20:58:47.521Z,49.67
2018-04-22T21:01:15.870Z,49.61
2018-04-22T21:03:44.232Z,49.83
2018-04-22T21:06:12.550Z,49.85
2018-04-22T21:08:40.900Z,50.00
2018-04-22T21:11:09.997Z,50.13
2018-04-22T21:13:39.122Z,50.58
2018-04-22T21:16:07.469Z,50.86
2018-04-22T21:18:36.703Z,50.92
2018-04-22T21:21:05.964Z,51.09
2018-04-22T21:23:35.098Z,51.19
2018-04-22T21:26:04.222Z,51.20
2018-04-22T21:28:32.566Z,51.24
2018-04-22T21:31:00.900Z,51.66
2018-04-22T21:33:30.002Z,51.71
2018-04-22T21:35:58.350Z,51.61
2018-04-22T21:38:26.701Z,51.50
2018-04-22T21:40:55.073Z,51.65
2018-04-22T21:43:23.391Z,51.72
2018-04-22T21:45:51.753Z,51.85
2018-04-22T21:48:20.211Z,52.08
2018-04-22T21:50:48.553Z,52.25
2018-04-22T21:53:17.698Z,53.19
2018-04-22T21:55:46.062Z,52.95
2018-04-22T21:58:14.444Z,53.05
2018-04-22T22:00:42.781Z,53.10
2018-04-22T22:03:11.148Z,53.14
2018-04-22T22:05:39.508Z,53.14
2018-04-22T22:08:07.837Z,53.47
2018-04-22T22:10:36.215Z,53.72
2018-04-22T22:13:04.531Z,53.92
2018-04-22T22:15:32.885Z,54.06
2018-04-22T22:18:01.265Z,54.25
2018-04-22T22:20:29.793Z,54.26
2018-04-22T22:22:58.137Z,54.62
2018-04-22T22:25:26.524Z,55.01
2018-04-22T22:27:54.886Z,55.25
2018-04-22T22:30:23.235Z,55.84
2018-04-22T22:32:51.579Z,56.27
2018-04-22T22:35:19.939Z,56.00
2018-04-22T22:37:48.310Z,56.25
2018-04-22T22:40:17.400Z,56.47
2018-04-22T22:42:45.772Z,56.58
2018-04-22T22:45:14.087Z,56.72
2018-04-22T22:47:42.416Z,57.03
2018-04-22T22:50:10.779Z,57.07
2018-04-22T22:52:39.136Z,57.39
2018-04-22T22:55:08.218Z,57.36
2018-04-22T22:57:37.382Z,57.33
2018-04-22T23:00:05.747Z,57.64
2018-04-22T23:02:34.096Z,57.73
2018-04-22T23:05:03.203Z,57.69
2018-04-22T23:07:31.572Z,57.79
2018-04-22T23:09:59.893Z,57.79
2018-04-22T23:12:28.241Z,58.34
2018-04-22T23:14:56.606Z,58.62
2018-04-22T23:17:24.929Z,58.71
2018-04-22T23:19:53.264Z,56.32
2018-04-22T23:22:21.632Z,55.57
2018-04-22T23:24:49.946Z,56.22
2018-04-22T23:27:18.320Z,55.63
2018-04-22T23:29:46.647Z,55.34
2018-04-22T23:32:15.795Z,55.37
2018-04-22T23:34:44.124Z,56.25
2018-04-22T23:37:13.260Z,55.04
2018-04-22T23:39:41.615Z,55.40
2018-04-22T23:42:09.987Z,55.86
2018-04-22T23:44:38.323Z,56.35
2018-04-22T23:47:06.706Z,56.89
2018-04-22T23:49:35.023Z,57.14
2018-04-22T23:52:03.763Z,56.75
2018-04-22T23:54:32.115Z,56.54
2018-04-22T23:57:00.421Z,56.47
2018-04-22T23:59:28.798Z,56.81
